createdAt,value
2022-11-24T00:01:07.117Z,671.17
2022-11-24T00:03:39.039Z,667.78
2022-11-24T00:06:15.940Z,675.75
2022-11-24T00:08:49.335Z,670.13
2022-11-24T00:11:23.589Z,670.08
2022-11-24T00:13:55.502Z,673.65
2022-11-24T00:16:29.440Z,674.17
2022-11-24T00:19:02.902Z,678.17
2022-11-24T00:21:37.249Z,674.00
2022-11-24T00:24:09.475Z,674.35
2022-11-24T00:26:41.294Z,678.92
2022-11-24T00:29:22.410Z,679.78
2022-11-24T00:31:54.329Z,672.80
2022-11-24T00:34:25.843Z,674.63
2022-11-24T00:39:31.115Z,671.03
2022-11-24T00:42:02.745Z,672.80
2022-11-24T00:44:34.505Z,674.80
2022-11-24T00:47:06.476Z,671.05
2022-11-24T00:52:11.923Z,671.15
2022-11-24T00:54:43.637Z,672.88
2022-11-24T00:59:46.163Z,672.53
2022-11-24T01:02:17.852Z,672.60
2022-11-24T01:04:49.318Z,671.55
2022-11-24T01:07:23.580Z,670.20
2022-11-24T01:09:55.174Z,676.90
2022-11-24T01:12:26.840Z,675.17
2022-11-24T01:14:58.274Z,672.03
2022-11-24T01:20:00.887Z,667.83
2022-11-24T01:25:06.569Z,671.47
2022-11-24T01:27:38.808Z,659.40
2022-11-24T01:35:13.466Z,670.40
2022-11-24T01:37:47.758Z,654.75
2022-11-24T01:40:19.387Z,669.05
2022-11-24T01:42:52.753Z,668.30
2022-11-24T01:45:41.280Z,671.67
2022-11-24T01:48:24.471Z,673.17
2022-11-24T01:51:06.914Z,671.15
2022-11-24T01:53:44.158Z,672.58
2022-11-24T01:56:17.005Z,674.53
2022-11-24T01:58:49.787Z,651.40
2022-11-24T02:01:21.307Z,669.42
2022-11-24T02:03:54.498Z,669.45
2022-11-24T02:06:29.592Z,667.38
2022-11-24T02:09:10.018Z,671.08
2022-11-24T02:11:43.442Z,669.67
2022-11-24T02:14:19.079Z,668.67
2022-11-24T02:16:53.856Z,669.38
2022-11-24T02:19:35.286Z,671.85
2022-11-24T02:22:07.512Z,666.30
2022-11-24T02:24:49.771Z,672.95
2022-11-24T02:27:23.941Z,670.75
2022-11-24T02:29:56.267Z,673.85
2022-11-24T02:32:27.727Z,670.83
2022-11-24T02:35:04.855Z,674.53
2022-11-24T02:37:36.332Z,667.10
2022-11-24T02:42:47.238Z,665.85
2022-11-24T02:45:20.162Z,646.80
2022-11-24T02:47:51.518Z,672.30
2022-11-24T02:52:54.295Z,670.03
2022-11-24T02:58:00.058Z,666.83
2022-11-24T03:00:31.683Z,658.55
2022-11-24T03:03:03.256Z,668.92
2022-11-24T03:05:34.917Z,658.25
2022-11-24T03:08:06.351Z,672.78
2022-11-24T03:13:11.681Z,674.22
2022-11-24T03:15:43.598Z,668.72
2022-11-24T03:18:14.879Z,668.75
2022-11-24T03:20:46.748Z,670.28
2022-11-24T03:25:49.523Z,667.80
2022-11-24T03:28:23.499Z,666.45
2022-11-24T03:30:55.332Z,671.05
2022-11-24T03:33:26.724Z,667.38
2022-11-24T03:35:58.704Z,672.53
2022-11-24T03:38:30.508Z,672.85
2022-11-24T03:41:02.186Z,671.80
2022-11-24T03:43:41.946Z,668.00
2022-11-24T03:46:15.703Z,670.95
2022-11-24T03:48:47.121Z,671.28
2022-11-24T03:53:49.753Z,668.38
2022-11-24T03:58:54.915Z,667.28
2022-11-24T04:01:26.678Z,668.05
2022-11-24T04:03:58.008Z,669.33
2022-11-24T04:06:30.018Z,668.22
2022-11-24T04:09:02.700Z,669.05
2022-11-24T04:11:47.095Z,670.67
2022-11-24T04:14:21.391Z,668.67
2022-11-24T04:16:53.119Z,675.20
2022-11-24T04:19:24.484Z,672.20
2022-11-24T04:24:27.144Z,669.90
2022-11-24T04:29:32.331Z,665.92
2022-11-24T04:32:04.008Z,666.35
2022-11-24T04:34:35.850Z,668.30
2022-11-24T04:37:08.063Z,666.78
2022-11-24T04:39:39.450Z,663.38
2022-11-24T04:42:11.640Z,665.83
2022-11-24T04:47:20.034Z,666.95
2022-11-24T04:49:51.995Z,670.42
2022-11-24T04:52:25.285Z,664.42
2022-11-24T04:54:56.716Z,668.75
2022-11-24T05:00:02.974Z,665.97
2022-11-24T05:02:34.838Z,667.85
2022-11-24T05:05:06.432Z,666.78
2022-11-24T05:10:22.721Z,657.85
2022-11-24T05:12:59.670Z,669.40
2022-11-24T05:15:33.561Z,671.75
2022-11-24T05:18:08.854Z,668.90
2022-11-24T05:20:40.637Z,665.88
2022-11-24T05:23:12.356Z,670.33
2022-11-24T05:25:47.589Z,670.20
2022-11-24T05:28:20.166Z,667.17
2022-11-24T05:30:54.258Z,669.47
2022-11-24T05:33:28.727Z,668.00
2022-11-24T05:36:04.186Z,675.42
2022-11-24T05:38:36.466Z,667.22
2022-11-24T05:43:39.938Z,668.33
2022-11-24T05:46:13.829Z,671.67
2022-11-24T05:48:45.406Z,669.30
2022-11-24T05:51:16.848Z,673.55
2022-11-24T05:56:19.503Z,673.03
2022-11-24T05:58:51.018Z,666.22
2022-11-24T06:01:24.813Z,668.10
2022-11-24T06:03:56.329Z,670.22
2022-11-24T06:06:27.589Z,671.50
2022-11-24T06:08:59.079Z,669.03
2022-11-24T06:11:30.303Z,667.47
2022-11-24T06:14:03.832Z,668.08
2022-11-24T06:16:40.794Z,670.40
2022-11-24T06:19:13.508Z,666.13
2022-11-24T06:21:44.642Z,665.80
2022-11-24T06:24:16.510Z,670.13
2022-11-24T06:26:47.735Z,671.28
2022-11-24T06:29:19.423Z,665.78
2022-11-24T06:31:53.289Z,666.72
2022-11-24T06:34:24.848Z,667.33
2022-11-24T06:36:56.151Z,673.67
2022-11-24T06:39:28.153Z,672.70
2022-11-24T06:41:59.539Z,665.88
2022-11-24T06:47:05.517Z,659.67
2022-11-24T06:49:37.094Z,665.50
2022-11-24T06:52:08.422Z,667.08
2022-11-24T06:57:10.916Z,665.53
2022-11-24T06:59:42.948Z,667.45
2022-11-24T07:02:17.055Z,653.38
2022-11-24T07:04:48.815Z,674.17
2022-11-24T07:07:20.425Z,674.05
2022-11-24T07:09:52.171Z,673.38
2022-11-24T07:12:24.568Z,627.97
2022-11-24T07:14:58.768Z,672.67
2022-11-24T07:17:32.778Z,666.42
2022-11-24T07:20:04.562Z,663.60
2022-11-24T07:22:35.934Z,684.97
2022-11-24T07:25:09.964Z,680.33
2022-11-24T14:20:55.621Z,501.67
2022-11-24T14:23:27.710Z,533.67
2022-11-24T14:25:59.305Z,524.08
2022-11-24T14:28:33.007Z,508.70
2022-11-24T14:31:23.812Z,514.50
2022-11-24T14:34:21.324Z,500.20
2022-11-24T14:36:56.933Z,499.83
2022-11-24T14:39:30.421Z,507.20
2022-11-24T14:42:06.234Z,503.55
2022-11-24T14:44:48.417Z,509.55
2022-11-24T14:50:12.472Z,489.10
2022-11-24T14:52:57.701Z,505.02
2022-11-24T14:55:31.636Z,494.85
2022-11-24T14:58:03.166Z,491.77
2022-11-24T15:00:36.446Z,492.80
2022-11-24T15:03:20.192Z,500.30
2022-11-24T15:05:58.680Z,505.02
2022-11-24T15:08:38.835Z,504.10
2022-11-24T15:11:10.905Z,496.75
2022-11-24T15:13:42.812Z,501.25
2022-11-24T15:16:21.027Z,512.30
2022-11-24T15:19:00.288Z,504.95
2022-11-24T15:21:36.480Z,501.48
2022-11-24T15:24:19.347Z,498.08
2022-11-24T15:26:50.972Z,505.05
2022-11-24T15:29:22.540Z,501.58
2022-11-24T15:31:54.730Z,506.88
2022-11-24T15:34:26.019Z,507.83
2022-11-24T15:36:58.803Z,500.92
2022-11-24T15:39:32.554Z,503.35
2022-11-24T15:42:04.230Z,508.85
2022-11-24T15:44:35.854Z,500.90
2022-11-24T15:47:07.911Z,500.27
2022-11-24T15:49:39.219Z,507.77
2022-11-24T15:52:11.339Z,509.92
2022-11-24T15:54:45.151Z,504.77
2022-11-24T15:57:16.732Z,495.23
2022-11-24T15:59:48.018Z,512.67
2022-11-24T16:02:19.699Z,501.23
2022-11-24T16:04:51.453Z,501.00
2022-11-24T16:07:23.122Z,504.55
2022-11-24T16:09:57.123Z,488.38
2022-11-24T16:12:28.664Z,507.67
2022-11-24T16:14:59.840Z,507.67
2022-11-24T16:17:31.482Z,504.95
2022-11-24T16:20:02.700Z,510.55
2022-11-24T16:22:34.260Z,497.67
2022-11-24T16:25:08.726Z,508.50
2022-11-24T16:27:40.723Z,506.05
2022-11-24T16:32:43.768Z,497.42
2022-11-24T16:35:15.124Z,498.13
2022-11-24T16:40:21.079Z,502.40
2022-11-24T16:42:53.273Z,497.58
2022-11-24T16:45:24.685Z,510.35
2022-11-24T16:47:56.467Z,506.20
2022-11-24T16:50:27.773Z,508.38
2022-11-24T16:55:33.154Z,497.67
2022-11-24T16:58:07.414Z,488.13
2022-11-24T17:00:38.896Z,505.52
2022-11-24T17:03:10.566Z,506.92
2022-11-24T17:05:41.916Z,506.70
2022-11-24T17:08:13.567Z,503.48
2022-11-24T17:10:47.511Z,508.80
2022-11-24T17:13:19.287Z,517.35
2022-11-24T17:15:54.113Z,508.10
2022-11-24T17:18:26.410Z,499.73
2022-11-24T17:21:04.635Z,504.95
2022-11-24T17:23:41.431Z,511.98
2022-11-24T17:26:17.478Z,504.38
2022-11-24T17:28:49.364Z,494.05
2022-11-24T17:31:24.197Z,503.45
2022-11-24T17:33:57.382Z,491.38
2022-11-24T17:36:29.726Z,510.75
2022-11-24T17:39:04.615Z,500.25
2022-11-24T17:41:38.779Z,502.70
2022-11-24T17:44:12.336Z,507.17
2022-11-24T17:46:43.649Z,507.00
2022-11-24T17:51:50.646Z,503.58
2022-11-24T17:57:16.750Z,505.27
2022-11-24T17:59:48.428Z,506.83
2022-11-24T18:02:19.745Z,502.98
2022-11-24T18:07:22.332Z,493.95
2022-11-24T18:12:27.389Z,498.60
2022-11-24T18:14:59.154Z,496.02
2022-11-24T18:17:31.254Z,496.88
2022-11-24T18:20:03.040Z,495.10
2022-11-24T18:23:04.090Z,494.48
2022-11-24T18:25:25.975Z,495.48
2022-11-24T18:28:00.320Z,504.63
2022-11-24T18:30:31.967Z,503.58
2022-11-24T18:33:03.180Z,507.60
2022-11-24T18:35:35.420Z,507.48
2022-11-24T18:38:06.714Z,491.33
2022-11-24T18:40:41.997Z,505.25
2022-11-24T18:43:15.847Z,504.20
2022-11-24T18:45:47.758Z,512.45
2022-11-24T18:48:19.384Z,509.13
2022-11-24T18:50:54.554Z,508.92
2022-11-24T18:53:28.082Z,499.65
2022-11-24T18:56:04.318Z,495.70
2022-11-24T18:58:38.915Z,502.00
2022-11-24T19:01:12.238Z,501.05
2022-11-24T19:03:48.716Z,492.02
2022-11-24T19:06:24.050Z,503.02
2022-11-24T19:08:57.182Z,491.13
2022-11-24T19:11:32.525Z,496.48
2022-11-24T19:14:07.888Z,497.83
2022-11-24T19:16:40.703Z,494.63
2022-11-24T19:19:13.281Z,498.42
2022-11-24T19:21:45.145Z,502.30
2022-11-24T19:24:16.525Z,493.63
2022-11-24T19:29:22.758Z,499.93
2022-11-24T19:31:56.684Z,489.60
2022-11-24T19:34:27.954Z,493.15
2022-11-24T19:39:30.631Z,490.60
2022-11-24T19:42:02.369Z,493.92
2022-11-24T19:44:36.477Z,484.23
2022-11-24T19:47:08.231Z,501.67
2022-11-24T19:49:39.537Z,500.00
2022-11-24T19:52:11.117Z,504.70
2022-11-24T19:54:42.288Z,508.02
2022-11-24T19:57:13.856Z,502.25
2022-11-24T19:59:47.727Z,503.45
2022-11-24T20:02:19.520Z,498.63
2022-11-24T20:04:50.861Z,501.90
2022-11-24T20:07:22.630Z,502.75
2022-11-24T20:09:54.007Z,495.38
2022-11-24T20:14:59.202Z,486.40
2022-11-24T20:17:33.066Z,493.45
2022-11-24T20:20:04.243Z,494.23
2022-11-24T20:22:35.772Z,494.42
2022-11-24T20:25:08.226Z,501.65
2022-11-24T20:27:39.827Z,503.33
2022-11-24T20:30:14.449Z,504.67
2022-11-24T20:32:46.144Z,501.98
2022-11-24T20:35:18.434Z,495.52
2022-11-24T20:40:35.964Z,507.88
2022-11-24T20:45:42.473Z,482.38
2022-11-24T20:48:14.147Z,495.52
2022-11-24T20:50:50.999Z,505.73
2022-11-24T20:53:23.124Z,500.55
2022-11-24T20:55:54.364Z,501.13
2022-11-24T20:58:25.924Z,487.95
2022-11-24T21:01:06.693Z,506.85
2022-11-24T21:03:43.071Z,497.07
2022-11-24T21:06:15.480Z,481.15
2022-11-24T21:08:47.040Z,500.42
2022-11-24T21:11:18.814Z,490.35
2022-11-24T21:13:51.621Z,495.75
2022-11-24T21:16:27.942Z,500.45
2022-11-24T21:19:01.364Z,500.75
2022-11-24T21:21:36.189Z,494.58
2022-11-24T21:24:10.078Z,498.55
2022-11-24T21:26:42.677Z,498.13
2022-11-24T21:29:17.329Z,496.95
2022-11-24T21:31:51.462Z,497.45
2022-11-24T21:34:23.301Z,502.58
2022-11-24T21:39:26.050Z,494.00
2022-11-24T21:41:57.246Z,488.90
2022-11-24T21:44:31.110Z,496.38
2022-11-24T21:47:04.909Z,493.70
2022-11-24T21:49:36.461Z,503.73
2022-11-24T21:52:08.021Z,498.58
2022-11-24T21:54:39.537Z,494.98
2022-11-24T21:57:10.722Z,487.15
2022-11-24T21:59:42.265Z,498.33
2022-11-24T22:02:16.764Z,491.33
2022-11-24T22:04:48.281Z,499.73
2022-11-24T22:07:19.519Z,480.48
2022-11-24T22:12:21.761Z,475.90
2022-11-24T22:14:53.403Z,493.08
2022-11-24T22:17:27.169Z,477.38
2022-11-24T22:19:58.742Z,490.23
2022-11-24T22:22:30.015Z,497.60
2022-11-24T22:25:01.553Z,499.40
2022-11-24T22:27:32.743Z,501.35
2022-11-24T22:30:06.190Z,505.65
2022-11-24T22:32:39.995Z,490.30
2022-11-24T22:35:12.210Z,505.60
2022-11-24T22:37:43.453Z,491.00
2022-11-24T22:42:46.290Z,480.40
2022-11-24T22:45:17.801Z,488.40
2022-11-24T22:47:51.479Z,480.38
2022-11-24T22:50:23.094Z,495.45
2022-11-24T22:52:54.268Z,475.10
2022-11-24T22:55:26.251Z,503.75
2022-11-24T23:00:28.975Z,482.63
2022-11-24T23:03:03.148Z,487.90
2022-11-24T23:05:36.065Z,481.80
2022-11-24T23:08:07.944Z,479.38
2022-11-24T23:10:39.525Z,498.95
2022-11-24T23:13:10.796Z,495.25
2022-11-24T23:15:42.322Z,495.63
2022-11-24T23:18:16.421Z,497.45
2022-11-24T23:20:47.979Z,499.27
2022-11-24T23:23:19.263Z,498.10
2022-11-24T23:25:50.888Z,491.77
2022-11-24T23:28:22.185Z,498.60
2022-11-24T23:30:53.811Z,490.33
2022-11-24T23:33:27.601Z,494.10
2022-11-24T23:35:59.318Z,488.00
2022-11-24T23:38:32.920Z,498.65
2022-11-24T23:41:07.202Z,506.80
2022-11-24T23:43:39.266Z,486.17
2022-11-24T23:46:12.716Z,486.60
2022-11-24T23:48:47.229Z,496.13
2022-11-24T23:51:20.975Z,499.83
2022-11-24T23:56:38.771Z,504.80
2022-11-24T23:59:12.935Z,497.08
